Time;durP1;ratioP1;P1;durP2;ratioP2;P2;SDS_P1;SDS_P2;PMS_P1;PMS_P2;Temp;Humidity;BMP_temperature;BMP_pressure;BME280_temperature;BME280_humidity;BME280_pressure;Samples;Min_cycle;Max_cycle;Signal;HPM_P1;HPM_P2
2020/12/15 00:00:23;;;;;;;1.60;1.30;;;9.40;98.20;;;;;;5059964;28;20467;-76
2020/12/15 00:02:50;;;;;;;1.60;1.43;;;9.30;97.80;;;;;;5059872;28;20459;-76
2020/12/15 00:05:16;;;;;;;1.60;1.20;;;9.30;97.70;;;;;;5058018;28;20879;-76
2020/12/15 00:07:44;;;;;;;1.60;1.20;;;9.30;98.10;;;;;;5058873;28;20478;-75
2020/12/15 00:10:14;;;;;;;1.60;1.20;;;9.30;98.20;;;;;;5056789;28;20513;-75
2020/12/15 00:12:46;;;;;;;1.60;1.20;;;9.20;98.20;;;;;;5062003;28;20482;-76
2020/12/15 00:15:13;;;;;;;1.60;1.10;;;9.20;98.20;;;;;;5054917;28;20462;-76
2020/12/15 00:17:39;;;;;;;1.60;1.20;;;9.20;98.20;;;;;;5054485;28;20540;-76
2020/12/15 00:20:07;;;;;;;1.60;1.20;;;9.20;98.20;;;;;;5053848;28;20506;-77
2020/12/15 00:22:34;;;;;;;1.60;1.20;;;9.10;98.20;;;;;;5053811;28;20470;-77
2020/12/15 00:25:02;;;;;;;1.60;1.20;;;9.10;98.20;;;;;;5053251;28;20508;-77
2020/12/15 00:27:29;;;;;;;1.60;1.20;;;9.10;98.20;;;;;;5052153;28;20482;-77
2020/12/15 00:29:55;;;;;;;1.70;1.60;;;9.00;98.20;;;;;;5052561;28;20494;-78
2020/12/15 00:32:21;;;;;;;1.90;1.70;;;9.00;98.20;;;;;;5052488;28;20532;-78
2020/12/15 00:34:48;;;;;;;1.57;1.20;;;9.00;98.20;;;;;;5052169;28;20490;-77
2020/12/15 00:37:14;;;;;;;1.60;1.20;;;8.90;98.20;;;;;;5050311;28;20502;-78
2020/12/15 00:39:41;;;;;;;1.60;1.20;;;8.90;98.20;;;;;;5050196;28;20505;-79
2020/12/15 00:42:08;;;;;;;1.60;1.10;;;8.90;98.20;;;;;;5049086;28;21103;-79
2020/12/15 00:44:35;;;;;;;1.60;1.13;;;8.80;98.20;;;;;;5050377;28;20795;-78
2020/12/15 00:47:03;;;;;;;1.60;1.20;;;8.80;98.20;;;;;;5050656;28;20463;-78
2020/12/15 00:49:29;;;;;;;1.60;1.20;;;8.80;98.20;;;;;;5048154;28;20496;-80
2020/12/15 00:51:55;;;;;;;1.60;1.20;;;8.70;98.20;;;;;;5047417;28;20518;-79
2020/12/15 00:54:22;;;;;;;1.60;1.23;;;8.70;98.20;;;;;;5045259;28;20459;-79
2020/12/15 00:56:51;;;;;;;1.60;1.20;;;8.60;98.20;;;;;;5040001;28;20478;-79
2020/12/15 00:59:19;;;;;;;1.60;1.20;;;8.60;98.20;;;;;;5043478;28;20491;-78
2020/12/15 01:01:45;;;;;;;2.60;2.40;;;8.50;98.20;;;;;;5048820;28;20453;-80
2020/12/15 01:04:14;;;;;;;1.60;1.20;;;8.40;98.20;;;;;;5049230;28;20458;-79
2020/12/15 01:06:40;;;;;;;2.57;2.37;;;8.40;98.20;;;;;;5044331;28;20554;-79
2020/12/15 01:09:07;;;;;;;1.60;1.20;;;8.30;98.20;;;;;;5053457;28;20510;-78
2020/12/15 01:11:34;;;;;;;1.60;1.20;;;8.20;98.20;;;;;;5052468;28;20509;-79
2020/12/15 01:14:03;;;;;;;1.60;1.20;;;8.20;98.20;;;;;;5047571;28;20463;-78
2020/12/15 01:16:39;;;;;;;1.60;1.20;;;8.10;98.20;;;;;;5048429;28;20455;-78
2020/12/15 01:19:05;;;;;;;1.60;1.20;;;8.00;98.20;;;;;;5052101;28;20483;-78
2020/12/15 01:21:32;;;;;;;1.60;1.20;;;8.00;98.20;;;;;;5052497;28;20461;-77
2020/12/15 01:23:58;;;;;;;1.60;1.20;;;8.00;98.20;;;;;;5049268;28;20467;-78
2020/12/15 01:26:25;;;;;;;1.60;1.30;;;8.00;98.20;;;;;;5051834;28;20511;-78
2020/12/15 01:28:52;;;;;;;1.60;1.20;;;7.90;98.20;;;;;;5052878;28;20502;-78
2020/12/15 01:31:24;;;;;;;1.60;1.13;;;7.90;98.20;;;;;;5051608;28;20522;-78
2020/12/15 01:33:52;;;;;;;1.60;1.20;;;7.90;98.20;;;;;;5048391;28;20455;-78
2020/12/15 01:36:26;;;;;;;1.60;1.30;;;7.90;98.20;;;;;;5052152;28;20471;-79
2020/12/15 01:38:53;;;;;;;1.60;1.30;;;7.90;98.20;;;;;;5053389;28;20505;-79
2020/12/15 01:41:20;;;;;;;1.70;1.40;;;7.90;98.20;;;;;;5048456;28;20502;-78
2020/12/15 01:43:52;;;;;;;1.60;1.30;;;7.90;98.20;;;;;;5048188;28;20962;-76
2020/12/15 01:46:19;;;;;;;1.60;1.30;;;7.90;98.20;;;;;;5050667;28;20568;-78
2020/12/15 01:48:46;;;;;;;1.60;1.30;;;7.90;98.20;;;;;;5052341;28;20483;-78
2020/12/15 01:51:16;;;;;;;1.60;1.20;;;7.90;98.20;;;;;;5053229;28;20498;-78
2020/12/15 01:53:44;;;;;;;1.60;1.30;;;7.80;98.20;;;;;;5052639;28;20454;-78
2020/12/15 01:56:11;;;;;;;1.60;1.30;;;7.80;98.20;;;;;;5051134;28;20458;-77
2020/12/15 01:58:39;;;;;;;1.60;1.20;;;7.80;98.20;;;;;;5047767;28;20655;-79
2020/12/15 02:01:09;;;;;;;1.60;1.20;;;7.80;98.20;;;;;;5052109;28;20486;-78
2020/12/15 02:03:35;;;;;;;1.60;1.20;;;7.80;98.20;;;;;;5052848;28;20481;-78
2020/12/15 02:06:02;;;;;;;1.60;1.20;;;7.70;98.20;;;;;;5051614;28;20451;-77
2020/12/15 02:08:29;;;;;;;1.60;1.20;;;7.70;98.20;;;;;;5049922;28;20517;-78
2020/12/15 02:10:56;;;;;;;1.60;1.30;;;7.70;98.20;;;;;;5050767;28;20462;-79
2020/12/15 02:13:24;;;;;;;1.60;1.20;;;7.70;98.20;;;;;;5053548;28;21049;-77
2020/12/15 02:15:51;;;;;;;1.60;1.33;;;7.70;98.20;;;;;;5047111;28;20487;-78
2020/12/15 02:18:23;;;;;;;1.60;1.20;;;7.60;98.20;;;;;;5037445;28;20532;-78
2020/12/15 02:20:49;;;;;;;1.63;1.27;;;7.70;98.20;;;;;;5046728;28;20450;-78
2020/12/15 02:23:17;;;;;;;1.60;1.30;;;7.60;98.20;;;;;;5063912;22;20530;-78
2020/12/15 02:25:46;;;;;;;1.60;1.30;;;7.70;98.20;;;;;;5050674;28;20962;-79
2020/12/15 02:28:13;;;;;;;1.60;1.30;;;7.70;98.20;;;;;;5047603;28;20494;-77
2020/12/15 02:30:39;;;;;;;1.60;1.30;;;7.70;98.20;;;;;;5086831;22;20486;-78
2020/12/15 02:33:06;;;;;;;1.60;1.20;;;7.70;98.20;;;;;;5051633;28;20519;-76
2020/12/15 02:35:35;;;;;;;1.60;1.20;;;7.70;98.20;;;;;;5063828;22;20593;-77
2020/12/15 02:38:03;;;;;;;1.63;1.30;;;7.70;98.20;;;;;;5044251;28;20558;-77
2020/12/15 02:40:33;;;;;;;1.60;1.20;;;7.70;98.20;;;;;;5050708;28;20837;-77
2020/12/15 02:43:00;;;;;;;1.60;1.30;;;7.70;98.20;;;;;;5049578;28;20509;-77
2020/12/15 02:45:30;;;;;;;1.67;1.40;;;7.70;98.20;;;;;;5050188;28;20451;-78
2020/12/15 02:47:57;;;;;;;1.60;1.30;;;7.70;98.20;;;;;;5047761;28;20470;-77
2020/12/15 02:50:25;;;;;;;1.60;1.30;;;7.70;98.20;;;;;;5051174;28;20451;-77
2020/12/15 02:52:52;;;;;;;1.60;1.30;;;7.80;98.20;;;;;;5052060;28;20536;-77
2020/12/15 02:55:19;;;;;;;1.60;1.20;;;7.80;98.20;;;;;;5049404;28;20470;-77
2020/12/15 02:57:49;;;;;;;1.60;1.30;;;7.80;98.20;;;;;;5042433;28;20510;-76
2020/12/15 03:00:18;;;;;;;1.60;1.40;;;7.80;98.20;;;;;;5064702;22;20561;-77
2020/12/15 03:02:50;;;;;;;1.60;1.20;;;7.80;98.20;;;;;;5051826;28;20466;-76
2020/12/15 03:05:18;;;;;;;1.60;1.30;;;7.80;98.20;;;;;;5049085;28;20965;-77
2020/12/15 03:07:44;;;;;;;1.60;1.20;;;7.80;98.20;;;;;;5048639;28;20471;-77
2020/12/15 03:10:11;;;;;;;1.60;1.30;;;7.80;98.20;;;;;;5052032;28;21037;-76
2020/12/15 03:12:40;;;;;;;1.60;1.30;;;7.80;98.20;;;;;;5049212;28;20519;-77
2020/12/15 03:15:08;;;;;;;1.60;1.30;;;7.80;98.20;;;;;;5047849;28;20529;-77
2020/12/15 03:17:37;;;;;;;1.60;1.33;;;7.70;98.20;;;;;;5052488;28;20702;-75
2020/12/15 03:20:03;;;;;;;1.60;1.30;;;7.70;98.20;;;;;;5081314;22;20499;-76
2020/12/15 03:22:30;;;;;;;1.60;1.20;;;7.70;98.20;;;;;;5050791;28;20549;-76
2020/12/15 03:24:56;;;;;;;1.70;1.40;;;7.70;98.20;;;;;;5050742;28;21000;-76
2020/12/15 03:27:23;;;;;;;1.60;1.30;;;7.70;98.20;;;;;;5050570;28;20614;-76
2020/12/15 03:29:49;;;;;;;1.60;1.20;;;7.70;98.20;;;;;;5052889;28;20921;-75
2020/12/15 03:32:17;;;;;;;1.60;1.20;;;7.70;98.20;;;;;;5052923;28;20486;-79
2020/12/15 03:34:43;;;;;;;1.60;1.20;;;7.70;98.20;;;;;;5051467;28;20493;-76
2020/12/15 03:37:11;;;;;;;1.60;1.30;;;7.70;98.20;;;;;;5052173;28;20483;-75
2020/12/15 03:39:38;;;;;;;1.60;1.20;;;7.70;98.20;;;;;;5053379;28;20517;-76
2020/12/15 03:42:04;;;;;;;1.60;1.30;;;7.70;98.20;;;;;;5052478;28;20526;-76
2020/12/15 03:44:31;;;;;;;1.60;1.20;;;7.70;98.20;;;;;;5050521;28;20905;-76
2020/12/15 03:47:01;;;;;;;1.70;1.53;;;7.70;98.20;;;;;;5052270;28;20484;-76
2020/12/15 03:49:28;;;;;;;1.63;1.30;;;7.70;98.20;;;;;;5049750;28;20540;-76
2020/12/15 03:51:55;;;;;;;1.60;1.30;;;7.70;98.20;;;;;;5052010;28;20593;-76
2020/12/15 03:54:24;;;;;;;1.60;1.30;;;7.70;98.20;;;;;;5052059;28;20490;-75
2020/12/15 03:56:51;;;;;;;1.70;1.47;;;7.70;98.20;;;;;;5050516;28;20459;-76
2020/12/15 03:59:18;;;;;;;1.60;1.20;;;7.70;98.20;;;;;;5050171;28;20479;-76
2020/12/15 04:01:44;;;;;;;1.60;1.20;;;7.70;98.20;;;;;;5051912;28;20486;-76
2020/12/15 04:04:11;;;;;;;1.90;1.70;;;7.70;98.20;;;;;;5051557;28;20536;-75
2020/12/15 04:06:38;;;;;;;1.60;1.30;;;7.70;98.20;;;;;;5051853;28;20483;-76
2020/12/15 04:09:05;;;;;;;1.60;1.23;;;7.70;98.20;;;;;;5048815;28;20529;-76
2020/12/15 04:11:31;;;;;;;1.60;1.40;;;7.70;98.20;;;;;;5051488;28;20459;-76
2020/12/15 04:13:58;;;;;;;1.60;1.20;;;7.70;98.20;;;;;;5054067;28;20867;-76
2020/12/15 04:16:24;;;;;;;1.60;1.30;;;7.70;98.20;;;;;;5049590;28;20471;-76
2020/12/15 04:18:53;;;;;;;1.60;1.30;;;7.70;98.20;;;;;;5047438;28;20540;-75
2020/12/15 04:21:21;;;;;;;1.60;1.30;;;7.70;98.20;;;;;;5052751;28;20510;-76
2020/12/15 04:23:52;;;;;;;1.60;1.30;;;7.70;98.20;;;;;;5052953;28;20881;-76
2020/12/15 04:26:19;;;;;;;1.60;1.20;;;7.70;98.20;;;;;;5049330;28;20926;-75
2020/12/15 04:28:48;;;;;;;1.60;1.30;;;7.70;98.20;;;;;;5049846;28;20495;-75
2020/12/15 04:31:14;;;;;;;1.60;1.30;;;7.70;98.20;;;;;;5055283;28;20470;-77
2020/12/15 04:33:41;;;;;;;2.10;1.90;;;7.80;98.20;;;;;;5050980;28;20791;-77
2020/12/15 04:36:08;;;;;;;1.60;1.30;;;7.80;98.20;;;;;;5053659;28;20512;-75
2020/12/15 04:38:36;;;;;;;1.60;1.20;;;7.80;98.20;;;;;;5055951;28;20474;-76
2020/12/15 04:41:04;;;;;;;1.60;1.20;;;7.80;98.20;;;;;;5050177;28;20464;-75
2020/12/15 04:43:34;;;;;;;1.60;1.30;;;7.70;98.20;;;;;;5052126;28;20458;-75
2020/12/15 04:46:03;;;;;;;1.60;1.40;;;7.70;98.20;;;;;;5052067;28;20491;-75
2020/12/15 04:48:31;;;;;;;1.63;1.40;;;7.70;98.20;;;;;;5053591;28;20491;-76
2020/12/15 04:51:00;;;;;;;1.60;1.30;;;7.70;98.20;;;;;;5047594;28;20475;-76
2020/12/15 04:53:37;;;;;;;1.60;1.30;;;7.70;98.20;;;;;;5052459;28;20483;-76
2020/12/15 04:56:25;;;;;;;1.60;1.20;;;7.70;98.20;;;;;;5052445;28;20486;-76
2020/12/15 04:59:01;;;;;;;1.70;1.50;;;7.70;98.20;;;;;;5045386;28;20478;-75
2020/12/15 05:01:31;;;;;;;1.60;1.20;;;7.70;98.20;;;;;;5051847;28;20533;-77
2020/12/15 05:04:05;;;;;;;1.60;1.30;;;7.70;98.20;;;;;;5055183;28;20620;-76
2020/12/15 05:06:37;;;;;;;1.60;1.20;;;7.70;98.20;;;;;;5043555;28;20472;-76
2020/12/15 05:09:04;;;;;;;1.60;1.20;;;7.70;98.20;;;;;;5052992;28;20506;-76
2020/12/15 05:11:32;;;;;;;1.60;1.30;;;7.70;98.20;;;;;;5053253;28;20463;-76
2020/12/15 05:13:59;;;;;;;1.60;1.30;;;7.70;98.20;;;;;;5054013;28;21004;-77
2020/12/15 05:16:37;;;;;;;1.60;1.40;;;7.80;98.20;;;;;;5048621;28;20462;-77
2020/12/15 05:19:05;;;;;;;2.13;1.93;;;7.80;98.20;;;;;;5050712;28;20522;-77
2020/12/15 05:21:34;;;;;;;1.60;1.30;;;7.80;98.20;;;;;;5051831;28;20516;-77
2020/12/15 05:24:03;;;;;;;1.70;1.40;;;7.80;98.20;;;;;;5052337;28;20470;-76
2020/12/15 05:26:30;;;;;;;2.03;1.83;;;7.80;98.20;;;;;;5037752;28;20471;-78
2020/12/15 05:29:03;;;;;;;1.60;1.20;;;7.80;98.20;;;;;;5048796;28;20486;-78
2020/12/15 05:31:32;;;;;;;1.60;1.20;;;7.80;98.20;;;;;;5050646;28;20609;-78
2020/12/15 05:33:59;;;;;;;1.60;1.30;;;7.90;98.20;;;;;;5051400;28;20467;-77
2020/12/15 05:36:26;;;;;;;1.60;1.20;;;7.90;98.20;;;;;;5047567;28;20471;-78
2020/12/15 05:39:06;;;;;;;1.60;1.30;;;7.90;98.20;;;;;;5050710;28;20493;-77
2020/12/15 05:41:39;;;;;;;1.60;1.20;;;7.90;98.20;;;;;;5048837;28;20458;-77
2020/12/15 05:44:06;;;;;;;1.60;1.20;;;7.90;98.20;;;;;;5049351;28;20466;-78
2020/12/15 05:46:33;;;;;;;1.60;1.20;;;7.90;98.20;;;;;;5045469;28;20462;-77
2020/12/15 05:49:05;;;;;;;1.60;1.20;;;7.90;98.20;;;;;;5049859;28;20478;-78
2020/12/15 05:51:48;;;;;;;1.60;1.20;;;7.90;98.20;;;;;;5051085;28;20835;-76
2020/12/15 05:54:18;;;;;;;1.60;1.20;;;7.90;98.20;;;;;;5054013;28;20557;-76
2020/12/15 05:57:03;;;;;;;1.60;1.20;;;7.90;98.20;;;;;;5054170;28;20458;-79
2020/12/15 05:59:30;;;;;;;1.60;1.20;;;7.90;98.20;;;;;;5055212;28;20490;-77
2020/12/15 06:02:05;;;;;;;1.60;1.27;;;8.00;98.20;;;;;;5052335;28;20474;-78
2020/12/15 06:04:47;;;;;;;1.60;1.20;;;8.00;98.20;;;;;;5053755;28;20459;-79
2020/12/15 06:07:20;;;;;;;1.97;1.77;;;8.00;98.20;;;;;;5049297;28;20864;-79
2020/12/15 06:09:50;;;;;;;1.60;1.30;;;8.00;98.20;;;;;;5053714;28;20461;-79
2020/12/15 06:12:36;;;;;;;1.60;1.40;;;8.00;98.20;;;;;;5052876;28;20515;-79
2020/12/15 06:15:04;;;;;;;1.60;1.20;;;8.10;98.20;;;;;;5047848;28;20506;-78
2020/12/15 06:17:36;;;;;;;1.60;1.30;;;8.10;98.20;;;;;;5044487;28;20471;-77
2020/12/15 06:20:04;;;;;;;1.60;1.20;;;8.10;98.20;;;;;;5050959;28;20474;-79
2020/12/15 06:22:36;;;;;;;1.60;1.20;;;8.10;98.20;;;;;;5054536;28;20694;-79
2020/12/15 06:25:03;;;;;;;2.23;2.03;;;8.10;98.20;;;;;;5052581;28;20974;-78
2020/12/15 06:27:37;;;;;;;1.60;1.30;;;8.10;98.20;;;;;;5052140;28;20463;-78
2020/12/15 06:30:05;;;;;;;1.60;1.20;;;8.20;98.20;;;;;;5053342;28;20706;-78
2020/12/15 06:32:32;;;;;;;1.60;1.20;;;8.20;98.20;;;;;;5052974;28;21045;-80
2020/12/15 06:34:58;;;;;;;1.90;1.70;;;8.20;98.20;;;;;;5052468;28;20459;-78
2020/12/15 06:37:25;;;;;;;1.60;1.20;;;8.20;98.20;;;;;;5052625;28;20973;-79
2020/12/15 06:40:00;;;;;;;1.60;1.30;;;8.20;98.20;;;;;;5053574;28;20455;-79
2020/12/15 06:42:27;;;;;;;1.60;1.23;;;8.20;98.20;;;;;;5049954;28;20958;-79
2020/12/15 06:45:08;;;;;;;1.60;1.37;;;8.20;98.20;;;;;;5049374;28;20482;-79
2020/12/15 06:47:36;;;;;;;1.60;1.20;;;8.20;98.20;;;;;;5053562;28;20473;-78
2020/12/15 06:50:13;;;;;;;1.60;1.30;;;8.20;98.20;;;;;;5030023;28;20487;-79
2020/12/15 06:52:40;;;;;;;1.60;1.30;;;8.20;98.20;;;;;;5015747;28;20514;-80
2020/12/15 06:55:07;;;;;;;1.70;1.40;;;8.20;98.20;;;;;;5011894;28;20895;-79
2020/12/15 06:57:34;;;;;;;1.60;1.20;;;8.20;98.20;;;;;;5013910;28;20813;-78
2020/12/15 07:00:10;;;;;;;1.60;1.20;;;8.30;98.20;;;;;;5013285;28;20480;-79
2020/12/15 07:02:37;;;;;;;1.60;1.20;;;8.20;98.20;;;;;;5011223;28;20456;-78
2020/12/15 07:05:23;;;;;;;1.60;1.30;;;8.30;98.20;;;;;;5010949;28;20461;-80
2020/12/15 07:07:51;;;;;;;1.60;1.20;;;8.30;98.20;;;;;;5011359;28;20543;-77
2020/12/15 07:10:22;;;;;;;1.60;1.20;;;8.30;98.20;;;;;;5006903;28;20511;-78
2020/12/15 07:12:50;;;;;;;1.60;1.30;;;8.30;98.20;;;;;;5012983;28;21010;-79
2020/12/15 07:15:19;;;;;;;1.60;1.20;;;8.30;98.20;;;;;;5010989;28;20543;-79
2020/12/15 07:17:47;;;;;;;1.60;1.20;;;8.30;98.20;;;;;;5008846;28;20503;-79
2020/12/15 07:20:17;;;;;;;1.60;1.20;;;8.30;98.20;;;;;;5007060;28;20976;-78
2020/12/15 07:22:46;;;;;;;1.63;1.30;;;8.30;98.20;;;;;;5012070;28;20546;-78
2020/12/15 07:25:14;;;;;;;1.60;1.20;;;8.30;98.20;;;;;;5008111;28;20561;-80
2020/12/15 07:27:49;;;;;;;1.60;1.20;;;8.30;98.20;;;;;;5018980;28;20460;-78
2020/12/15 07:30:47;;;;;;;1.60;1.30;;;8.30;98.20;;;;;;5018741;28;20539;-78
2020/12/15 07:33:21;;;;;;;1.60;1.30;;;8.40;98.20;;;;;;4991858;28;20492;-77
2020/12/15 07:35:52;;;;;;;1.60;1.30;;;8.40;98.20;;;;;;5010480;28;20459;-76
2020/12/15 07:38:21;;;;;;;1.60;1.20;;;8.40;98.20;;;;;;5015618;28;20480;-77
2020/12/15 07:41:02;;;;;;;1.60;1.20;;;8.40;98.20;;;;;;5004738;28;21058;-78
2020/12/15 07:43:31;;;;;;;1.60;1.23;;;8.40;98.20;;;;;;5011839;28;20560;-77
2020/12/15 07:45:58;;;;;;;1.60;1.20;;;8.40;98.20;;;;;;5010867;28;20539;-76
2020/12/15 07:48:29;;;;;;;1.60;1.20;;;8.40;98.20;;;;;;5010979;28;20515;-79
2020/12/15 07:51:13;;;;;;;1.60;1.20;;;8.40;98.20;;;;;;5014625;28;20761;-77
2020/12/15 07:53:50;;;;;;;1.60;1.30;;;8.40;98.20;;;;;;5009741;28;20546;-78
2020/12/15 07:56:33;;;;;;;1.60;1.20;;;8.40;98.20;;;;;;5008222;28;20552;-76
2020/12/15 07:59:00;;;;;;;1.60;1.20;;;8.40;98.20;;;;;;5010759;28;20821;-78
2020/12/15 08:01:27;;;;;;;1.60;1.20;;;8.40;98.20;;;;;;5009458;28;20466;-75
2020/12/15 08:04:05;;;;;;;2.23;2.03;;;8.40;98.20;;;;;;5005841;28;20554;-77
2020/12/15 08:06:34;;;;;;;1.60;1.20;;;8.40;98.20;;;;;;5021161;23;20499;-76
2020/12/15 08:11:52;;;;;;;1.60;1.20;;;8.40;98.20;;;;;;5027403;28;20531;-76
2020/12/15 08:14:26;;;;;;;1.60;1.20;;;8.40;98.20;;;;;;5041241;28;20609;-76
2020/12/15 08:16:56;;;;;;;2.83;2.63;;;8.40;98.20;;;;;;5031238;28;20896;-77
2020/12/15 08:19:34;;;;;;;1.70;1.30;;;8.40;98.20;;;;;;5028359;28;20483;-78
2020/12/15 08:22:21;;;;;;;1.60;1.20;;;8.40;98.20;;;;;;5030409;28;20892;-76
2020/12/15 08:24:51;;;;;;;1.60;1.27;;;8.40;98.20;;;;;;4991398;28;20456;-77
2020/12/15 08:27:23;;;;;;;1.60;1.20;;;8.40;98.20;;;;;;5023571;28;20468;-77
2020/12/15 08:29:59;;;;;;;1.60;1.20;;;8.50;98.20;;;;;;5028638;28;20482;-79
2020/12/15 08:32:30;;;;;;;1.60;1.20;;;8.50;98.20;;;;;;5028094;28;20479;-76
2020/12/15 08:35:02;;;;;;;1.60;1.20;;;8.50;98.20;;;;;;5030754;28;20480;-77
2020/12/15 08:37:32;;;;;;;1.60;1.20;;;8.50;98.20;;;;;;5027832;28;21045;-77
2020/12/15 08:39:59;;;;;;;1.60;1.20;;;8.50;98.20;;;;;;5026515;28;20486;-78
2020/12/15 08:42:25;;;;;;;1.70;1.50;;;8.50;98.20;;;;;;5023688;28;20462;-76
2020/12/15 08:44:57;;;;;;;1.63;1.30;;;8.50;98.20;;;;;;5030278;28;20498;-78
2020/12/15 08:47:27;;;;;;;1.60;1.20;;;8.50;98.20;;;;;;5022298;28;20469;-76
2020/12/15 08:52:55;;;;;;;1.60;1.20;;;8.60;98.20;;;;;;5026700;28;20476;-77
2020/12/15 08:55:38;;;;;;;2.23;1.83;;;8.60;98.20;;;;;;5027070;28;20511;-77
2020/12/15 08:58:09;;;;;;;1.60;1.20;;;8.60;98.20;;;;;;5023681;28;20476;-77
2020/12/15 09:00:45;;;;;;;1.60;1.20;;;8.60;98.20;;;;;;5037205;28;20454;-78
2020/12/15 09:03:23;;;;;;;1.63;1.23;;;8.60;98.20;;;;;;5031866;28;21031;-76
2020/12/15 09:05:56;;;;;;;1.60;1.20;;;8.60;98.20;;;;;;5025489;28;20464;-75
2020/12/15 09:08:31;;;;;;;1.60;1.20;;;8.60;98.20;;;;;;5024331;28;20491;-75
2020/12/15 09:11:22;;;;;;;1.60;1.20;;;8.60;98.20;;;;;;5020384;28;21027;-75
2020/12/15 09:14:03;;;;;;;1.60;1.10;;;8.70;98.20;;;;;;5019915;28;20502;-75
2020/12/15 09:16:52;;;;;;;3.90;3.70;;;8.70;98.20;;;;;;5026093;28;20891;-77
2020/12/15 09:22:19;;;;;;;1.60;1.20;;;8.70;98.20;;;;;;5028241;28;20830;-76
2020/12/15 09:24:57;;;;;;;1.60;1.20;;;8.70;98.20;;;;;;5028557;28;20477;-76
2020/12/15 09:28:19;;;;;;;1.60;1.30;;;8.70;98.20;;;;;;5023945;28;20963;-77
2020/12/15 09:30:56;;;;;;;1.60;1.23;;;8.70;98.20;;;;;;5011924;28;20472;-77
2020/12/15 09:33:44;;;;;;;;;;;;;;;;;;;;;
2020/12/15 09:46:58;;;;;;;1.60;1.20;;;8.80;98.20;;;;;;5014044;28;20525;-77
2020/12/15 09:55:48;;;;;;;;;;;;;;;;;;;;;
2020/12/15 09:58:50;;;;;;;1.60;1.10;;;8.90;98.20;;;;;;4968497;28;20494;-77
2020/12/15 10:01:30;;;;;;;1.90;1.70;;;8.90;98.20;;;;;;4903338;29;20480;-76
2020/12/15 10:04:09;;;;;;;1.60;1.40;;;9.00;98.20;;;;;;4911118;29;20886;-77
2020/12/15 10:09:44;;;;;;;1.67;1.20;;;9.00;98.20;;;;;;4915199;28;20687;-76
2020/12/15 10:12:13;;;;;;;1.60;1.30;;;9.00;98.20;;;;;;5011530;28;20468;-78
2020/12/15 10:14:58;;;;;;;1.63;1.27;;;9.00;98.20;;;;;;5001763;28;20487;-78
2020/12/15 10:17:27;;;;;;;1.60;1.20;;;9.00;98.20;;;;;;5007334;28;20456;-77
2020/12/15 10:20:43;;;;;;;1.60;1.10;;;9.00;98.20;;;;;;5006594;28;20469;-78
2020/12/15 10:23:09;;;;;;;1.60;1.20;;;9.00;98.20;;;;;;5014338;28;20823;-76
2020/12/15 10:25:40;;;;;;;1.60;1.20;;;9.00;98.20;;;;;;5007784;28;20998;-77
2020/12/15 10:28:15;;;;;;;1.60;1.13;;;9.00;98.20;;;;;;5000981;28;20493;-76
2020/12/15 10:30:43;;;;;;;1.70;1.40;;;9.10;98.20;;;;;;5008761;28;20465;-77
2020/12/15 10:33:15;;;;;;;1.60;1.20;;;9.10;98.20;;;;;;5013154;28;20488;-78
2020/12/15 10:35:42;;;;;;;1.60;1.40;;;9.10;98.20;;;;;;5016900;28;20472;-78
2020/12/15 10:38:21;;;;;;;1.67;1.30;;;9.10;98.20;;;;;;5002174;28;20501;-76
2020/12/15 10:40:48;;;;;;;1.60;1.10;;;9.10;98.20;;;;;;5010027;28;20473;-76
2020/12/15 10:43:31;;;;;;;1.60;1.20;;;9.00;98.20;;;;;;5011589;28;20460;-77
2020/12/15 10:46:02;;;;;;;1.67;1.43;;;9.00;98.20;;;;;;5007178;28;20476;-78
2020/12/15 10:48:33;;;;;;;1.60;1.20;;;9.00;98.20;;;;;;5009373;28;20922;-78
2020/12/15 10:51:03;;;;;;;1.60;1.10;;;9.10;98.20;;;;;;5004851;28;20462;-77
2020/12/15 10:53:31;;;;;;;1.70;1.30;;;9.10;98.20;;;;;;5007029;28;20480;-75
2020/12/15 10:56:00;;;;;;;1.63;1.23;;;9.10;98.20;;;;;;5010853;28;20464;-77
2020/12/15 10:58:30;;;;;;;1.70;1.50;;;9.20;98.20;;;;;;5013211;28;20550;-77
2020/12/15 11:00:59;;;;;;;1.67;1.30;;;9.20;98.20;;;;;;5011508;28;20472;-76
2020/12/15 11:03:26;;;;;;;1.60;1.20;;;9.30;98.20;;;;;;5007468;28;20867;-76
2020/12/15 11:05:54;;;;;;;1.63;1.20;;;9.30;98.20;;;;;;5011195;28;20857;-75
2020/12/15 11:08:20;;;;;;;1.70;1.40;;;9.30;98.20;;;;;;5009675;28;20656;-76
2020/12/15 11:10:57;;;;;;;1.60;1.20;;;9.30;98.20;;;;;;5014119;28;20574;-76
2020/12/15 11:13:24;;;;;;;1.60;1.20;;;9.30;98.20;;;;;;5007576;28;20546;-75
2020/12/15 11:15:58;;;;;;;1.97;1.73;;;9.40;98.20;;;;;;5016026;28;20464;-76
2020/12/15 11:18:28;;;;;;;1.63;1.30;;;9.40;98.20;;;;;;5005439;28;20489;-78
2020/12/15 11:21:04;;;;;;;1.60;1.20;;;9.40;98.20;;;;;;5012346;28;20466;-78
2020/12/15 11:23:38;;;;;;;1.60;1.20;;;9.40;98.20;;;;;;5011377;28;20500;-78
2020/12/15 11:26:07;;;;;;;1.80;1.60;;;9.40;98.20;;;;;;5009006;28;20831;-78
2020/12/15 11:28:39;;;;;;;1.67;1.37;;;9.40;98.20;;;;;;5000365;28;20524;-77
2020/12/15 11:31:11;;;;;;;2.10;1.90;;;9.40;98.20;;;;;;5004191;28;20498;-77
2020/12/15 11:33:42;;;;;;;1.60;1.20;;;9.40;98.20;;;;;;5011230;28;20489;-78
2020/12/15 11:36:31;;;;;;;1.60;1.20;;;9.40;98.20;;;;;;5013396;28;20471;-76
2020/12/15 11:39:06;;;;;;;1.60;1.20;;;9.50;98.20;;;;;;4998358;28;20588;-77
2020/12/15 11:41:35;;;;;;;1.60;1.20;;;9.40;98.20;;;;;;5012202;28;20473;-76
2020/12/15 11:44:06;;;;;;;1.60;1.20;;;9.40;98.20;;;;;;5008636;28;20472;-79
2020/12/15 11:47:00;;;;;;;;;;;;;;;;;;;;;
2020/12/15 11:49:28;;;;;;;1.60;1.20;;;9.40;98.20;;;;;;5005809;28;20493;-77
2020/12/15 11:52:00;;;;;;;1.60;1.10;;;9.40;98.20;;;;;;5001166;28;20464;-77
2020/12/15 11:54:28;;;;;;;1.60;1.10;;;9.40;98.20;;;;;;5007339;28;20495;-77
2020/12/15 11:57:00;;;;;;;1.60;1.30;;;9.40;98.20;;;;;;5008805;28;20483;-80
2020/12/15 11:59:31;;;;;;;1.60;1.10;;;9.50;98.20;;;;;;5009758;28;20469;-79
2020/12/15 12:01:58;;;;;;;1.60;1.20;;;9.50;98.20;;;;;;5010011;28;20464;-80
2020/12/15 12:04:25;;;;;;;1.60;1.10;;;9.50;98.20;;;;;;5009354;28;20470;-79
2020/12/15 12:06:57;;;;;;;1.60;1.20;;;9.50;98.20;;;;;;5006231;28;20470;-78
2020/12/15 12:09:27;;;;;;;1.60;1.17;;;9.50;98.20;;;;;;4999454;28;20486;-79
2020/12/15 12:12:00;;;;;;;3.27;3.00;;;9.50;98.20;;;;;;5005964;28;20471;-78
2020/12/15 12:14:29;;;;;;;1.60;1.10;;;9.50;98.20;;;;;;5007765;28;20483;-78
2020/12/15 12:17:01;;;;;;;1.60;1.10;;;9.50;98.20;;;;;;5002260;28;20472;-78
2020/12/15 12:19:30;;;;;;;1.60;1.20;;;9.50;98.20;;;;;;5006416;28;20873;-77
2020/12/15 12:21:57;;;;;;;1.60;1.20;;;9.50;98.20;;;;;;5004480;28;20527;-77
2020/12/15 12:24:23;;;;;;;1.60;1.10;;;9.50;98.20;;;;;;5014426;28;20506;-76
2020/12/15 12:26:50;;;;;;;1.60;1.10;;;9.50;98.20;;;;;;5003409;28;20466;-78
2020/12/15 12:29:18;;;;;;;1.60;1.10;;;9.50;98.20;;;;;;5002084;28;20810;-77
2020/12/15 12:31:48;;;;;;;1.60;1.20;;;9.50;98.20;;;;;;5010489;28;20865;-78
2020/12/15 12:34:16;;;;;;;1.60;1.20;;;9.50;98.20;;;;;;5010707;28;20488;-78
2020/12/15 12:36:48;;;;;;;1.60;1.20;;;9.50;98.20;;;;;;5013198;28;20457;-76
2020/12/15 12:39:17;;;;;;;1.70;1.23;;;9.50;98.20;;;;;;5007695;28;20593;-78
2020/12/15 12:41:44;;;;;;;1.60;1.40;;;9.50;98.20;;;;;;5011243;28;20500;-77
2020/12/15 12:44:22;;;;;;;1.60;1.17;;;9.50;98.20;;;;;;5010542;28;20493;-77
2020/12/15 12:46:56;;;;;;;1.60;1.20;;;9.50;98.20;;;;;;5006913;28;20464;-78
2020/12/15 12:49:34;;;;;;;1.60;1.20;;;9.50;98.20;;;;;;5008151;28;20483;-78
2020/12/15 12:52:03;;;;;;;1.60;1.10;;;9.50;98.20;;;;;;5006495;28;20461;-79
2020/12/15 12:54:29;;;;;;;1.60;1.10;;;9.50;98.20;;;;;;5012085;28;20494;-78
2020/12/15 12:56:56;;;;;;;1.60;1.30;;;9.50;98.20;;;;;;5005101;28;20465;-77
2020/12/15 12:59:22;;;;;;;1.60;1.10;;;9.60;98.20;;;;;;5005444;28;20479;-78
2020/12/15 13:01:49;;;;;;;1.60;1.27;;;9.50;98.20;;;;;;5007767;28;20993;-80
2020/12/15 13:04:41;;;;;;;1.63;1.20;;;9.50;98.20;;;;;;5008579;28;20543;-80
2020/12/15 13:07:21;;;;;;;1.60;1.20;;;9.50;98.20;;;;;;5004359;28;20466;-79
2020/12/15 13:09:51;;;;;;;1.60;1.10;;;9.50;98.20;;;;;;5005598;28;20483;-80
2020/12/15 13:12:18;;;;;;;1.60;1.20;;;9.60;98.20;;;;;;5013177;28;20909;-79
2020/12/15 13:14:58;;;;;;;1.60;1.17;;;9.60;98.20;;;;;;5005605;28;20464;-78
2020/12/15 13:17:25;;;;;;;1.60;1.20;;;9.50;98.20;;;;;;5008470;28;20500;-77
2020/12/15 13:19:51;;;;;;;1.60;1.10;;;9.50;98.20;;;;;;5006073;28;20469;-80
2020/12/15 13:22:18;;;;;;;1.60;1.10;;;9.60;98.20;;;;;;5013903;28;20465;-78
2020/12/15 13:24:55;;;;;;;1.60;1.20;;;9.50;98.20;;;;;;5009358;28;20460;-79
2020/12/15 13:27:28;;;;;;;1.67;1.27;;;9.50;98.20;;;;;;5007139;28;20526;-80
2020/12/15 13:29:56;;;;;;;1.70;1.30;;;9.60;98.20;;;;;;5003701;28;20811;-79
2020/12/15 13:32:37;;;;;;;1.60;1.20;;;9.60;98.20;;;;;;5008268;28;20553;-79
2020/12/15 13:35:04;;;;;;;1.60;1.20;;;9.60;98.20;;;;;;5006325;28;20468;-80
2020/12/15 13:37:33;;;;;;;1.60;1.30;;;9.60;98.20;;;;;;5011314;28;20475;-79
2020/12/15 13:40:03;;;;;;;1.60;1.20;;;9.60;98.20;;;;;;5011126;28;20484;-78
2020/12/15 13:42:30;;;;;;;1.60;1.20;;;9.60;98.20;;;;;;4999171;28;20465;-78
2020/12/15 13:44:59;;;;;;;1.60;1.20;;;9.60;98.20;;;;;;5001137;28;20516;-80
2020/12/15 13:47:25;;;;;;;1.60;1.20;;;9.60;98.20;;;;;;5008244;28;20471;-80